sensor_id;sensor_type;location;lat;lon;timestamp;P1;durP1;ratioP1;P2;durP2;ratioP2
61317;SDS011;47201;40.428;-8.436;2023-08-01T00:00:06;4.85;;;3.80;;
61317;SDS011;47201;40.428;-8.436;2023-08-01T00:02:14;3.55;;;3.28;;
61317;SDS011;47201;40.428;-8.436;2023-08-01T00:04:15;4.55;;;3.60;;
61317;SDS011;47201;40.428;-8.436;2023-08-01T00:06:16;6.13;;;3.60;;
61317;SDS011;47201;40.428;-8.436;2023-08-01T00:08:17;4.25;;;3.13;;
61317;SDS011;47201;40.428;-8.436;2023-08-01T00:10:17;4.63;;;3.00;;
61317;SDS011;47201;40.428;-8.436;2023-08-01T00:12:18;3.05;;;2.63;;
61317;SDS011;47201;40.428;-8.436;2023-08-01T00:14:19;5.15;;;3.28;;
61317;SDS011;47201;40.428;-8.436;2023-08-01T00:16:20;3.03;;;2.80;;
61317;SDS011;47201;40.428;-8.436;2023-08-01T00:18:21;3.28;;;2.97;;
61317;SDS011;47201;40.428;-8.436;2023-08-01T00:20:21;5.35;;;3.35;;
61317;SDS011;47201;40.428;-8.436;2023-08-01T00:22:22;4.82;;;3.67;;
61317;SDS011;47201;40.428;-8.436;2023-08-01T00:24:23;5.95;;;3.50;;
61317;SDS011;47201;40.428;-8.436;2023-08-01T00:26:23;3.47;;;3.28;;
61317;SDS011;47201;40.428;-8.436;2023-08-01T00:28:24;3.63;;;3.10;;
61317;SDS011;47201;40.428;-8.436;2023-08-01T00:30:29;4.22;;;3.83;;
61317;SDS011;47201;40.428;-8.436;2023-08-01T00:32:30;4.38;;;3.60;;
61317;SDS011;47201;40.428;-8.436;2023-08-01T00:34:30;5.20;;;3.17;;
61317;SDS011;47201;40.428;-8.436;2023-08-01T00:36:31;4.88;;;3.35;;
61317;SDS011;47201;40.428;-8.436;2023-08-01T00:38:32;8.57;;;3.45;;
61317;SDS011;47201;40.428;-8.436;2023-08-01T00:40:33;7.75;;;3.75;;
61317;SDS011;47201;40.428;-8.436;2023-08-01T00:42:37;3.67;;;3.03;;
61317;SDS011;47201;40.428;-8.436;2023-08-01T00:44:38;3.45;;;3.10;;
61317;SDS011;47201;40.428;-8.436;2023-08-01T00:46:39;4.55;;;3.33;;
61317;SDS011;47201;40.428;-8.436;2023-08-01T00:48:40;6.38;;;2.80;;
61317;SDS011;47201;40.428;-8.436;2023-08-01T00:50:40;8.18;;;2.90;;
61317;SDS011;47201;40.428;-8.436;2023-08-01T00:52:41;7.72;;;2.30;;
61317;SDS011;47201;40.428;-8.436;2023-08-01T00:54:42;2.80;;;2.45;;
61317;SDS011;47201;40.428;-8.436;2023-08-01T00:56:42;8.32;;;2.92;;
61317;SDS011;47201;40.428;-8.436;2023-08-01T00:58:44;4.25;;;2.83;;
61317;SDS011;47201;40.428;-8.436;2023-08-01T01:00:45;4.45;;;2.83;;
61317;SDS011;47201;40.428;-8.436;2023-08-01T01:02:47;2.60;;;2.40;;
61317;SDS011;47201;40.428;-8.436;2023-08-01T01:04:47;4.93;;;2.60;;
61317;SDS011;47201;40.428;-8.436;2023-08-01T01:06:52;2.70;;;2.50;;
61317;SDS011;47201;40.428;-8.436;2023-08-01T01:09:03;2.65;;;2.45;;
61317;SDS011;47201;40.428;-8.436;2023-08-01T01:11:15;4.95;;;2.85;;
61317;SDS011;47201;40.428;-8.436;2023-08-01T01:13:16;3.05;;;2.65;;
61317;SDS011;47201;40.428;-8.436;2023-08-01T01:15:17;2.67;;;2.47;;
61317;SDS011;47201;40.428;-8.436;2023-08-01T01:17:17;2.88;;;2.65;;
61317;SDS011;47201;40.428;-8.436;2023-08-01T01:19:18;2.92;;;2.55;;
61317;SDS011;47201;40.428;-8.436;2023-08-01T01:21:19;3.90;;;2.63;;
61317;SDS011;47201;40.428;-8.436;2023-08-01T01:23:19;3.35;;;3.05;;
61317;SDS011;47201;40.428;-8.436;2023-08-01T01:25:22;5.85;;;3.25;;
61317;SDS011;47201;40.428;-8.436;2023-08-01T01:27:25;7.85;;;4.60;;
61317;SDS011;47201;40.428;-8.436;2023-08-01T01:29:27;6.65;;;5.20;;
61317;SDS011;47201;40.428;-8.436;2023-08-01T01:31:30;4.63;;;4.22;;
61317;SDS011;47201;40.428;-8.436;2023-08-01T01:33:32;8.50;;;4.47;;
61317;SDS011;47201;40.428;-8.436;2023-08-01T01:35:33;3.72;;;3.17;;
61317;SDS011;47201;40.428;-8.436;2023-08-01T01:37:35;3.10;;;2.65;;
61317;SDS011;47201;40.428;-8.436;2023-08-01T01:39:35;2.95;;;2.75;;
61317;SDS011;47201;40.428;-8.436;2023-08-01T01:41:36;3.92;;;2.53;;
61317;SDS011;47201;40.428;-8.436;2023-08-01T01:43:36;2.22;;;2.05;;
61317;SDS011;47201;40.428;-8.436;2023-08-01T01:45:38;2.88;;;2.30;;
61317;SDS011;47201;40.428;-8.436;2023-08-01T01:47:38;2.40;;;2.20;;
61317;SDS011;47201;40.428;-8.436;2023-08-01T01:49:40;3.10;;;2.80;;
61317;SDS011;47201;40.428;-8.436;2023-08-01T01:51:41;3.45;;;3.00;;
61317;SDS011;47201;40.428;-8.436;2023-08-01T01:53:42;3.03;;;2.78;;
61317;SDS011;47201;40.428;-8.436;2023-08-01T01:55:42;3.42;;;3.10;;
61317;SDS011;47201;40.428;-8.436;2023-08-01T01:57:43;4.63;;;3.33;;
61317;SDS011;47201;40.428;-8.436;2023-08-01T01:59:44;3.97;;;3.33;;
61317;SDS011;47201;40.428;-8.436;2023-08-01T02:01:44;3.80;;;3.45;;
61317;SDS011;47201;40.428;-8.436;2023-08-01T02:03:45;4.00;;;3.25;;
61317;SDS011;47201;40.428;-8.436;2023-08-01T02:05:47;5.10;;;4.70;;
61317;SDS011;47201;40.428;-8.436;2023-08-01T02:09:49;4.82;;;3.70;;
61317;SDS011;47201;40.428;-8.436;2023-08-01T02:11:50;4.55;;;4.22;;
61317;SDS011;47201;40.428;-8.436;2023-08-01T02:13:51;5.28;;;4.40;;
61317;SDS011;47201;40.428;-8.436;2023-08-01T02:15:52;5.80;;;4.50;;
61317;SDS011;47201;40.428;-8.436;2023-08-01T02:17:52;4.32;;;4.03;;
61317;SDS011;47201;40.428;-8.436;2023-08-01T02:19:53;4.97;;;4.50;;
61317;SDS011;47201;40.428;-8.436;2023-08-01T02:21:54;6.13;;;5.22;;
61317;SDS011;47201;40.428;-8.436;2023-08-01T02:23:54;5.22;;;4.72;;
61317;SDS011;47201;40.428;-8.436;2023-08-01T02:25:55;9.45;;;5.60;;
61317;SDS011;47201;40.428;-8.436;2023-08-01T02:28:00;4.80;;;4.32;;
61317;SDS011;47201;40.428;-8.436;2023-08-01T02:30:00;4.20;;;3.90;;
61317;SDS011;47201;40.428;-8.436;2023-08-01T02:32:01;6.50;;;4.72;;
61317;SDS011;47201;40.428;-8.436;2023-08-01T02:34:02;4.38;;;4.07;;
61317;SDS011;47201;40.428;-8.436;2023-08-01T02:36:02;4.07;;;3.78;;
61317;SDS011;47201;40.428;-8.436;2023-08-01T02:38:03;5.00;;;3.60;;
61317;SDS011;47201;40.428;-8.436;2023-08-01T02:40:04;4.38;;;4.03;;
61317;SDS011;47201;40.428;-8.436;2023-08-01T02:42:07;3.72;;;3.42;;
61317;SDS011;47201;40.428;-8.436;2023-08-01T02:44:08;3.72;;;3.53;;
61317;SDS011;47201;40.428;-8.436;2023-08-01T02:46:09;4.57;;;3.90;;
61317;SDS011;47201;40.428;-8.436;2023-08-01T02:50:11;5.72;;;4.25;;
61317;SDS011;47201;40.428;-8.436;2023-08-01T02:52:12;4.10;;;3.75;;
61317;SDS011;47201;40.428;-8.436;2023-08-01T02:54:12;4.50;;;4.20;;
61317;SDS011;47201;40.428;-8.436;2023-08-01T02:56:13;5.47;;;4.97;;
61317;SDS011;47201;40.428;-8.436;2023-08-01T02:58:14;5.60;;;5.28;;
61317;SDS011;47201;40.428;-8.436;2023-08-01T03:00:14;5.43;;;5.13;;
61317;SDS011;47201;40.428;-8.436;2023-08-01T03:02:17;6.03;;;5.63;;
61317;SDS011;47201;40.428;-8.436;2023-08-01T03:04:18;5.88;;;5.47;;
61317;SDS011;47201;40.428;-8.436;2023-08-01T03:06:18;5.25;;;4.85;;
61317;SDS011;47201;40.428;-8.436;2023-08-01T03:08:19;5.93;;;5.53;;
61317;SDS011;47201;40.428;-8.436;2023-08-01T03:10:20;5.97;;;5.57;;
61317;SDS011;47201;40.428;-8.436;2023-08-01T03:12:21;6.13;;;5.63;;
61317;SDS011;47201;40.428;-8.436;2023-08-01T03:14:21;6.15;;;5.75;;
61317;SDS011;47201;40.428;-8.436;2023-08-01T03:16:22;6.35;;;5.78;;
61317;SDS011;47201;40.428;-8.436;2023-08-01T03:20:24;7.07;;;6.43;;
61317;SDS011;47201;40.428;-8.436;2023-08-01T03:22:25;6.65;;;6.25;;
61317;SDS011;47201;40.428;-8.436;2023-08-01T03:24:25;9.40;;;8.73;;
61317;SDS011;47201;40.428;-8.436;2023-08-01T03:26:26;9.75;;;8.95;;
61317;SDS011;47201;40.428;-8.436;2023-08-01T03:28:28;8.48;;;7.85;;
61317;SDS011;47201;40.428;-8.436;2023-08-01T03:30:33;9.38;;;8.48;;
61317;SDS011;47201;40.428;-8.436;2023-08-01T03:32:34;10.95;;;9.77;;
61317;SDS011;47201;40.428;-8.436;2023-08-01T03:34:37;8.55;;;7.85;;
61317;SDS011;47201;40.428;-8.436;2023-08-01T03:36:39;12.07;;;10.88;;
61317;SDS011;47201;40.428;-8.436;2023-08-01T03:38:40;13.30;;;11.27;;
61317;SDS011;47201;40.428;-8.436;2023-08-01T03:40:40;11.90;;;10.70;;
61317;SDS011;47201;40.428;-8.436;2023-08-01T03:42:41;13.07;;;9.98;;
61317;SDS011;47201;40.428;-8.436;2023-08-01T03:44:42;11.02;;;9.90;;
61317;SDS011;47201;40.428;-8.436;2023-08-01T03:46:43;11.70;;;10.63;;
61317;SDS011;47201;40.428;-8.436;2023-08-01T03:48:43;11.73;;;10.52;;
61317;SDS011;47201;40.428;-8.436;2023-08-01T03:50:44;13.65;;;11.68;;
61317;SDS011;47201;40.428;-8.436;2023-08-01T03:52:45;13.63;;;12.20;;
61317;SDS011;47201;40.428;-8.436;2023-08-01T03:54:45;14.20;;;10.77;;
61317;SDS011;47201;40.428;-8.436;2023-08-01T03:56:46;15.98;;;12.38;;
61317;SDS011;47201;40.428;-8.436;2023-08-01T03:58:47;16.40;;;12.75;;
61317;SDS011;47201;40.428;-8.436;2023-08-01T04:00:47;15.75;;;12.75;;
61317;SDS011;47201;40.428;-8.436;2023-08-01T04:02:48;15.75;;;12.80;;
61317;SDS011;47201;40.428;-8.436;2023-08-01T04:04:49;16.45;;;13.50;;
61317;SDS011;47201;40.428;-8.436;2023-08-01T04:06:49;18.95;;;16.20;;
61317;SDS011;47201;40.428;-8.436;2023-08-01T04:08:50;17.13;;;14.05;;
61317;SDS011;47201;40.428;-8.436;2023-08-01T04:10:51;15.45;;;13.75;;
61317;SDS011;47201;40.428;-8.436;2023-08-01T04:12:52;13.32;;;11.95;;
61317;SDS011;47201;40.428;-8.436;2023-08-01T04:14:53;18.02;;;13.80;;
61317;SDS011;47201;40.428;-8.436;2023-08-01T04:16:53;13.07;;;11.73;;
61317;SDS011;47201;40.428;-8.436;2023-08-01T04:18:54;21.00;;;16.85;;
61317;SDS011;47201;40.428;-8.436;2023-08-01T04:20:55;18.58;;;15.60;;
61317;SDS011;47201;40.428;-8.436;2023-08-01T04:22:56;17.45;;;15.10;;
61317;SDS011;47201;40.428;-8.436;2023-08-01T04:25:00;17.52;;;14.90;;
61317;SDS011;47201;40.428;-8.436;2023-08-01T04:27:01;15.25;;;13.85;;
61317;SDS011;47201;40.428;-8.436;2023-08-01T04:29:02;20.65;;;15.90;;
61317;SDS011;47201;40.428;-8.436;2023-08-01T04:31:03;14.65;;;13.25;;
61317;SDS011;47201;40.428;-8.436;2023-08-01T04:33:04;14.45;;;13.05;;
61317;SDS011;47201;40.428;-8.436;2023-08-01T04:35:05;16.33;;;14.05;;
61317;SDS011;47201;40.428;-8.436;2023-08-01T04:37:06;13.00;;;11.70;;
61317;SDS011;47201;40.428;-8.436;2023-08-01T04:39:06;13.93;;;12.63;;
61317;SDS011;47201;40.428;-8.436;2023-08-01T04:41:07;18.92;;;13.98;;
61317;SDS011;47201;40.428;-8.436;2023-08-01T04:43:08;16.48;;;14.75;;
61317;SDS011;47201;40.428;-8.436;2023-08-01T04:45:09;15.85;;;14.15;;
61317;SDS011;47201;40.428;-8.436;2023-08-01T04:47:10;16.15;;;14.35;;
61317;SDS011;47201;40.428;-8.436;2023-08-01T04:49:11;15.93;;;14.15;;
61317;SDS011;47201;40.428;-8.436;2023-08-01T04:51:11;12.38;;;11.07;;
61317;SDS011;47201;40.428;-8.436;2023-08-01T04:53:12;15.65;;;14.10;;
61317;SDS011;47201;40.428;-8.436;2023-08-01T04:55:13;14.75;;;13.25;;
61317;SDS011;47201;40.428;-8.436;2023-08-01T04:57:14;14.38;;;13.07;;
61317;SDS011;47201;40.428;-8.436;2023-08-01T04:59:15;13.85;;;12.45;;
61317;SDS011;47201;40.428;-8.436;2023-08-01T05:01:15;15.43;;;12.48;;
61317;SDS011;47201;40.428;-8.436;2023-08-01T05:03:16;16.98;;;13.85;;
61317;SDS011;47201;40.428;-8.436;2023-08-01T05:05:17;14.52;;;12.98;;
61317;SDS011;47201;40.428;-8.436;2023-08-01T05:07:17;15.10;;;13.50;;
61317;SDS011;47201;40.428;-8.436;2023-08-01T05:09:18;14.48;;;12.88;;
61317;SDS011;47201;40.428;-8.436;2023-08-01T05:11:19;15.20;;;13.68;;
61317;SDS011;47201;40.428;-8.436;2023-08-01T05:13:19;18.13;;;15.90;;
61317;SDS011;47201;40.428;-8.436;2023-08-01T05:15:20;20.65;;;16.83;;
61317;SDS011;47201;40.428;-8.436;2023-08-01T05:17:21;18.25;;;16.45;;
61317;SDS011;47201;40.428;-8.436;2023-08-01T05:19:22;18.05;;;16.15;;
61317;SDS011;47201;40.428;-8.436;2023-08-01T05:21:22;18.80;;;16.65;;
61317;SDS011;47201;40.428;-8.436;2023-08-01T05:23:23;17.35;;;15.02;;
61317;SDS011;47201;40.428;-8.436;2023-08-01T05:25:24;19.55;;;16.05;;
61317;SDS011;47201;40.428;-8.436;2023-08-01T05:27:25;19.05;;;15.20;;
61317;SDS011;47201;40.428;-8.436;2023-08-01T05:29:25;19.05;;;16.63;;
61317;SDS011;47201;40.428;-8.436;2023-08-01T05:31:26;18.17;;;15.95;;
61317;SDS011;47201;40.428;-8.436;2023-08-01T05:33:27;18.42;;;16.23;;
61317;SDS011;47201;40.428;-8.436;2023-08-01T05:35:27;20.05;;;16.38;;
61317;SDS011;47201;40.428;-8.436;2023-08-01T05:37:28;15.50;;;13.77;;
61317;SDS011;47201;40.428;-8.436;2023-08-01T05:39:28;15.55;;;14.05;;
61317;SDS011;47201;40.428;-8.436;2023-08-01T05:41:29;14.40;;;12.80;;
61317;SDS011;47201;40.428;-8.436;2023-08-01T05:43:30;19.90;;;17.52;;
61317;SDS011;47201;40.428;-8.436;2023-08-01T05:45:32;17.45;;;14.13;;
61317;SDS011;47201;40.428;-8.436;2023-08-01T05:47:32;20.33;;;16.20;;
61317;SDS011;47201;40.428;-8.436;2023-08-01T05:49:33;15.25;;;13.65;;
61317;SDS011;47201;40.428;-8.436;2023-08-01T05:51:34;17.45;;;13.95;;
61317;SDS011;47201;40.428;-8.436;2023-08-01T05:53:34;14.07;;;12.65;;
61317;SDS011;47201;40.428;-8.436;2023-08-01T05:55:35;14.50;;;12.63;;
61317;SDS011;47201;40.428;-8.436;2023-08-01T05:57:36;14.95;;;13.40;;
61317;SDS011;47201;40.428;-8.436;2023-08-01T05:59:36;17.75;;;14.43;;
61317;SDS011;47201;40.428;-8.436;2023-08-01T06:01:37;18.13;;;14.07;;
61317;SDS011;47201;40.428;-8.436;2023-08-01T06:03:38;13.60;;;12.30;;
61317;SDS011;47201;40.428;-8.436;2023-08-01T06:05:38;19.80;;;13.57;;
61317;SDS011;47201;40.428;-8.436;2023-08-01T06:07:39;16.67;;;11.30;;
61317;SDS011;47201;40.428;-8.436;2023-08-01T06:09:40;11.40;;;10.25;;
61317;SDS011;47201;40.428;-8.436;2023-08-01T06:11:41;20.23;;;12.52;;
61317;SDS011;47201;40.428;-8.436;2023-08-01T06:13:41;18.42;;;12.48;;
61317;SDS011;47201;40.428;-8.436;2023-08-01T06:15:42;15.00;;;13.50;;
61317;SDS011;47201;40.428;-8.436;2023-08-01T06:17:43;13.63;;;12.25;;
61317;SDS011;47201;40.428;-8.436;2023-08-01T06:19:43;16.73;;;12.88;;
61317;SDS011;47201;40.428;-8.436;2023-08-01T06:21:44;14.05;;;12.43;;
61317;SDS011;47201;40.428;-8.436;2023-08-01T06:23:45;16.38;;;13.27;;
61317;SDS011;47201;40.428;-8.436;2023-08-01T06:25:46;14.88;;;12.82;;
61317;SDS011;47201;40.428;-8.436;2023-08-01T06:27:46;12.75;;;11.45;;
61317;SDS011;47201;40.428;-8.436;2023-08-01T06:29:47;17.25;;;11.38;;
61317;SDS011;47201;40.428;-8.436;2023-08-01T06:31:47;18.90;;;10.57;;
61317;SDS011;47201;40.428;-8.436;2023-08-01T06:33:48;15.98;;;10.02;;
61317;SDS011;47201;40.428;-8.436;2023-08-01T06:35:49;13.38;;;10.05;;
61317;SDS011;47201;40.428;-8.436;2023-08-01T06:37:50;12.52;;;10.70;;
61317;SDS011;47201;40.428;-8.436;2023-08-01T06:39:50;13.13;;;9.95;;
61317;SDS011;47201;40.428;-8.436;2023-08-01T06:41:51;11.27;;;10.15;;
61317;SDS011;47201;40.428;-8.436;2023-08-01T06:43:52;11.13;;;9.68;;
61317;SDS011;47201;40.428;-8.436;2023-08-01T06:45:52;12.15;;;8.43;;
61317;SDS011;47201;40.428;-8.436;2023-08-01T06:47:53;10.35;;;8.43;;
61317;SDS011;47201;40.428;-8.436;2023-08-01T06:49:54;15.18;;;9.38;;
61317;SDS011;47201;40.428;-8.436;2023-08-01T06:51:54;8.55;;;7.65;;
61317;SDS011;47201;40.428;-8.436;2023-08-01T06:53:55;9.88;;;8.82;;
61317;SDS011;47201;40.428;-8.436;2023-08-01T06:55:55;10.18;;;8.25;;
61317;SDS011;47201;40.428;-8.436;2023-08-01T06:57:56;9.05;;;7.97;;
61317;SDS011;47201;40.428;-8.436;2023-08-01T07:00:00;12.40;;;9.55;;
61317;SDS011;47201;40.428;-8.436;2023-08-01T07:02:01;9.27;;;8.38;;
61317;SDS011;47201;40.428;-8.436;2023-08-01T07:06:02;7.50;;;6.90;;
61317;SDS011;47201;40.428;-8.436;2023-08-01T07:08:03;8.43;;;7.05;;
61317;SDS011;47201;40.428;-8.436;2023-08-01T07:12:05;8.10;;;6.23;;
61317;SDS011;47201;40.428;-8.436;2023-08-01T07:16:06;8.07;;;4.80;;
61317;SDS011;47201;40.428;-8.436;2023-08-01T07:20:08;9.37;;;5.40;;
61317;SDS011;47201;40.428;-8.436;2023-08-01T07:24:09;5.63;;;5.22;;
61317;SDS011;47201;40.428;-8.436;2023-08-01T07:28:10;4.70;;;4.20;;
61317;SDS011;47201;40.428;-8.436;2023-08-01T07:30:11;8.00;;;4.95;;
61317;SDS011;47201;40.428;-8.436;2023-08-01T07:34:12;4.22;;;3.83;;
61317;SDS011;47201;40.428;-8.436;2023-08-01T07:36:13;4.30;;;3.90;;
61317;SDS011;47201;40.428;-8.436;2023-08-01T07:38:14;4.82;;;4.43;;
61317;SDS011;47201;40.428;-8.436;2023-08-01T07:40:14;5.57;;;4.70;;
61317;SDS011;47201;40.428;-8.436;2023-08-01T07:42:15;6.53;;;4.50;;
61317;SDS011;47201;40.428;-8.436;2023-08-01T07:44:16;4.45;;;4.00;;
61317;SDS011;47201;40.428;-8.436;2023-08-01T07:46:17;4.35;;;4.05;;
61317;SDS011;47201;40.428;-8.436;2023-08-01T07:48:17;4.97;;;4.05;;
61317;SDS011;47201;40.428;-8.436;2023-08-01T07:50:18;4.97;;;3.97;;
61317;SDS011;47201;40.428;-8.436;2023-08-01T07:52:19;4.88;;;4.43;;
61317;SDS011;47201;40.428;-8.436;2023-08-01T07:54:19;11.05;;;4.50;;
61317;SDS011;47201;40.428;-8.436;2023-08-01T07:56:20;4.82;;;4.40;;
61317;SDS011;47201;40.428;-8.436;2023-08-01T07:58:21;8.07;;;4.40;;
61317;SDS011;47201;40.428;-8.436;2023-08-01T08:00:21;7.53;;;4.45;;
61317;SDS011;47201;40.428;-8.436;2023-08-01T08:02:22;10.82;;;4.70;;
61317;SDS011;47201;40.428;-8.436;2023-08-01T08:06:23;4.40;;;4.00;;
61317;SDS011;47201;40.428;-8.436;2023-08-01T08:08:24;6.43;;;4.22;;
61317;SDS011;47201;40.428;-8.436;2023-08-01T08:10:25;11.00;;;4.97;;
61317;SDS011;47201;40.428;-8.436;2023-08-01T08:12:25;4.68;;;4.15;;
61317;SDS011;47201;40.428;-8.436;2023-08-01T08:16:29;4.97;;;4.47;;
61317;SDS011;47201;40.428;-8.436;2023-08-01T08:18:30;4.50;;;4.07;;
61317;SDS011;47201;40.428;-8.436;2023-08-01T08:22:32;7.85;;;4.47;;
61317;SDS011;47201;40.428;-8.436;2023-08-01T08:26:33;5.23;;;4.40;;
61317;SDS011;47201;40.428;-8.436;2023-08-01T08:28:37;7.88;;;4.53;;
61317;SDS011;47201;40.428;-8.436;2023-08-01T08:30:40;5.53;;;4.00;;
61317;SDS011;47201;40.428;-8.436;2023-08-01T08:34:41;8.80;;;4.00;;
61317;SDS011;47201;40.428;-8.436;2023-08-01T08:38:42;7.30;;;4.53;;
61317;SDS011;47201;40.428;-8.436;2023-08-01T08:40:43;4.75;;;3.72;;
61317;SDS011;47201;40.428;-8.436;2023-08-01T11:12:04;3.65;;;1.48;;
61317;SDS011;47201;40.428;-8.436;2023-08-01T11:14:05;5.55;;;1.85;;
61317;SDS011;47201;40.428;-8.436;2023-08-01T11:16:06;3.65;;;1.63;;
61317;SDS011;47201;40.428;-8.436;2023-08-01T11:18:09;4.93;;;1.73;;
61317;SDS011;47201;40.428;-8.436;2023-08-01T11:20:10;5.03;;;1.77;;
61317;SDS011;47201;40.428;-8.436;2023-08-01T11:22:12;2.00;;;1.80;;
61317;SDS011;47201;40.428;-8.436;2023-08-01T11:24:12;3.55;;;1.38;;
61317;SDS011;47201;40.428;-8.436;2023-08-01T11:26:13;2.40;;;1.67;;
61317;SDS011;47201;40.428;-8.436;2023-08-01T11:28:16;5.97;;;1.48;;
61317;SDS011;47201;40.428;-8.436;2023-08-01T11:30:17;4.93;;;1.77;;
61317;SDS011;47201;40.428;-8.436;2023-08-01T11:32:18;5.05;;;1.80;;
61317;SDS011;47201;40.428;-8.436;2023-08-01T11:34:20;2.97;;;1.92;;
61317;SDS011;47201;40.428;-8.436;2023-08-01T11:36:21;2.67;;;2.00;;
61317;SDS011;47201;40.428;-8.436;2023-08-01T11:38:28;2.20;;;2.00;;
61317;SDS011;47201;40.428;-8.436;2023-08-01T11:40:31;3.45;;;2.28;;
61317;SDS011;47201;40.428;-8.436;2023-08-01T11:42:32;3.38;;;1.92;;
61317;SDS011;47201;40.428;-8.436;2023-08-01T11:44:33;7.20;;;2.10;;
61317;SDS011;47201;40.428;-8.436;2023-08-01T11:46:34;4.18;;;2.17;;
61317;SDS011;47201;40.428;-8.436;2023-08-01T11:48:38;2.90;;;2.15;;
61317;SDS011;47201;40.428;-8.436;2023-08-01T11:50:39;1.98;;;1.88;;
61317;SDS011;47201;40.428;-8.436;2023-08-01T11:52:40;1.88;;;1.77;;
61317;SDS011;47201;40.428;-8.436;2023-08-01T11:54:45;2.65;;;2.17;;
61317;SDS011;47201;40.428;-8.436;2023-08-01T11:56:46;5.60;;;1.85;;
61317;SDS011;47201;40.428;-8.436;2023-08-01T11:58:46;1.73;;;1.63;;
61317;SDS011;47201;40.428;-8.436;2023-08-01T12:00:47;1.65;;;1.50;;
61317;SDS011;47201;40.428;-8.436;2023-08-01T12:02:47;3.58;;;1.90;;
61317;SDS011;47201;40.428;-8.436;2023-08-01T12:04:48;1.85;;;1.63;;
61317;SDS011;47201;40.428;-8.436;2023-08-01T12:06:50;5.50;;;1.85;;
61317;SDS011;47201;40.428;-8.436;2023-08-01T12:08:51;2.78;;;1.90;;
61317;SDS011;47201;40.428;-8.436;2023-08-01T12:10:53;3.55;;;1.98;;
61317;SDS011;47201;40.428;-8.436;2023-08-01T12:12:53;4.70;;;2.10;;
61317;SDS011;47201;40.428;-8.436;2023-08-01T12:14:54;4.22;;;1.90;;
61317;SDS011;47201;40.428;-8.436;2023-08-01T12:16:55;4.85;;;1.83;;
61317;SDS011;47201;40.428;-8.436;2023-08-01T12:18:56;3.72;;;1.70;;
61317;SDS011;47201;40.428;-8.436;2023-08-01T12:20:57;2.33;;;1.70;;
61317;SDS011;47201;40.428;-8.436;2023-08-01T12:22:58;1.90;;;1.77;;
61317;SDS011;47201;40.428;-8.436;2023-08-01T12:24:59;2.38;;;1.30;;
61317;SDS011;47201;40.428;-8.436;2023-08-01T12:26:59;2.47;;;1.52;;
61317;SDS011;47201;40.428;-8.436;2023-08-01T12:29:00;1.98;;;1.58;;
61317;SDS011;47201;40.428;-8.436;2023-08-01T12:31:00;2.25;;;1.55;;
61317;SDS011;47201;40.428;-8.436;2023-08-01T12:33:01;1.77;;;1.50;;
61317;SDS011;47201;40.428;-8.436;2023-08-01T12:35:02;2.15;;;1.67;;
61317;SDS011;47201;40.428;-8.436;2023-08-01T12:37:03;2.92;;;1.75;;
61317;SDS011;47201;40.428;-8.436;2023-08-01T12:39:04;3.53;;;1.95;;
61317;SDS011;47201;40.428;-8.436;2023-08-01T12:41:10;2.85;;;1.88;;
61317;SDS011;47201;40.428;-8.436;2023-08-01T12:43:11;3.03;;;1.88;;
61317;SDS011;47201;40.428;-8.436;2023-08-01T12:45:12;1.50;;;1.40;;
61317;SDS011;47201;40.428;-8.436;2023-08-01T12:47:12;1.67;;;1.55;;
61317;SDS011;47201;40.428;-8.436;2023-08-01T12:49:13;1.77;;;1.40;;
61317;SDS011;47201;40.428;-8.436;2023-08-01T12:51:14;3.45;;;1.63;;
61317;SDS011;47201;40.428;-8.436;2023-08-01T12:53:15;3.17;;;1.58;;
61317;SDS011;47201;40.428;-8.436;2023-08-01T12:55:15;1.48;;;1.33;;
61317;SDS011;47201;40.428;-8.436;2023-08-01T12:57:16;2.72;;;1.67;;
61317;SDS011;47201;40.428;-8.436;2023-08-01T12:59:17;1.20;;;1.10;;
61317;SDS011;47201;40.428;-8.436;2023-08-01T13:01:17;1.25;;;1.15;;
61317;SDS011;47201;40.428;-8.436;2023-08-01T13:03:18;1.48;;;1.20;;
61317;SDS011;47201;40.428;-8.436;2023-08-01T13:05:20;1.30;;;1.20;;
61317;SDS011;47201;40.428;-8.436;2023-08-01T13:07:20;1.38;;;1.30;;
61317;SDS011;47201;40.428;-8.436;2023-08-01T13:09:21;1.50;;;1.38;;
61317;SDS011;47201;40.428;-8.436;2023-08-01T13:11:22;3.03;;;1.35;;
61317;SDS011;47201;40.428;-8.436;2023-08-01T13:13:22;1.35;;;1.20;;
61317;SDS011;47201;40.428;-8.436;2023-08-01T13:15:23;5.28;;;1.35;;
61317;SDS011;47201;40.428;-8.436;2023-08-01T13:17:24;1.30;;;1.20;;
61317;SDS011;47201;40.428;-8.436;2023-08-01T13:19:25;2.13;;;1.20;;
61317;SDS011;47201;40.428;-8.436;2023-08-01T13:21:26;1.02;;;0.93;;
61317;SDS011;47201;40.428;-8.436;2023-08-01T13:23:26;2.75;;;1.20;;
61317;SDS011;47201;40.428;-8.436;2023-08-01T13:25:27;1.55;;;1.00;;
61317;SDS011;47201;40.428;-8.436;2023-08-01T13:27:28;1.27;;;1.10;;
61317;SDS011;47201;40.428;-8.436;2023-08-01T13:29:28;1.23;;;0.95;;
61317;SDS011;47201;40.428;-8.436;2023-08-01T13:31:29;1.63;;;1.20;;
61317;SDS011;47201;40.428;-8.436;2023-08-01T13:33:30;2.08;;;1.35;;
61317;SDS011;47201;40.428;-8.436;2023-08-01T13:35:30;2.63;;;1.33;;
61317;SDS011;47201;40.428;-8.436;2023-08-01T13:37:31;1.30;;;1.20;;
61317;SDS011;47201;40.428;-8.436;2023-08-01T13:39:31;1.35;;;1.25;;
61317;SDS011;47201;40.428;-8.436;2023-08-01T13:41:32;1.42;;;1.30;;
61317;SDS011;47201;40.428;-8.436;2023-08-01T13:43:33;1.70;;;1.30;;
61317;SDS011;47201;40.428;-8.436;2023-08-01T13:45:34;5.03;;;1.60;;
61317;SDS011;47201;40.428;-8.436;2023-08-01T13:47:35;4.20;;;1.67;;
61317;SDS011;47201;40.428;-8.436;2023-08-01T13:49:35;1.88;;;1.30;;
61317;SDS011;47201;40.428;-8.436;2023-08-01T13:51:36;1.77;;;1.50;;
61317;SDS011;47201;40.428;-8.436;2023-08-01T13:53:36;2.15;;;1.58;;
61317;SDS011;47201;40.428;-8.436;2023-08-01T13:55:41;1.88;;;1.40;;
61317;SDS011;47201;40.428;-8.436;2023-08-01T13:57:41;3.78;;;1.50;;
61317;SDS011;47201;40.428;-8.436;2023-08-01T13:59:42;1.48;;;1.38;;
61317;SDS011;47201;40.428;-8.436;2023-08-01T14:01:43;1.42;;;1.33;;
61317;SDS011;47201;40.428;-8.436;2023-08-01T14:03:44;2.90;;;1.45;;
61317;SDS011;47201;40.428;-8.436;2023-08-01T14:05:45;1.50;;;1.27;;
61317;SDS011;47201;40.428;-8.436;2023-08-01T14:07:46;2.05;;;1.38;;
61317;SDS011;47201;40.428;-8.436;2023-08-01T14:09:46;1.45;;;1.30;;
61317;SDS011;47201;40.428;-8.436;2023-08-01T14:11:47;1.30;;;1.02;;
61317;SDS011;47201;40.428;-8.436;2023-08-01T14:13:47;1.75;;;1.20;;
61317;SDS011;47201;40.428;-8.436;2023-08-01T14:15:48;1.98;;;1.27;;
61317;SDS011;47201;40.428;-8.436;2023-08-01T14:17:49;1.27;;;1.15;;
61317;SDS011;47201;40.428;-8.436;2023-08-01T14:19:49;1.95;;;1.08;;
61317;SDS011;47201;40.428;-8.436;2023-08-01T14:21:53;1.00;;;1.00;;
61317;SDS011;47201;40.428;-8.436;2023-08-01T14:23:54;1.70;;;1.00;;
61317;SDS011;47201;40.428;-8.436;2023-08-01T14:25:54;2.58;;;1.10;;
61317;SDS011;47201;40.428;-8.436;2023-08-01T14:27:58;1.20;;;0.93;;
61317;SDS011;47201;40.428;-8.436;2023-08-01T14:29:58;1.00;;;1.00;;
61317;SDS011;47201;40.428;-8.436;2023-08-01T14:32:00;6.50;;;1.23;;
61317;SDS011;47201;40.428;-8.436;2023-08-01T14:34:00;1.08;;;1.08;;
61317;SDS011;47201;40.428;-8.436;2023-08-01T14:36:01;1.20;;;1.10;;
61317;SDS011;47201;40.428;-8.436;2023-08-01T14:38:02;6.32;;;1.30;;
61317;SDS011;47201;40.428;-8.436;2023-08-01T14:40:03;1.45;;;1.10;;
61317;SDS011;47201;40.428;-8.436;2023-08-01T14:42:04;1.30;;;1.10;;
61317;SDS011;47201;40.428;-8.436;2023-08-01T14:44:05;2.03;;;1.30;;
61317;SDS011;47201;40.428;-8.436;2023-08-01T14:46:07;1.95;;;1.10;;
61317;SDS011;47201;40.428;-8.436;2023-08-01T14:48:08;4.30;;;1.50;;
61317;SDS011;47201;40.428;-8.436;2023-08-01T14:50:09;3.90;;;1.88;;
61317;SDS011;47201;40.428;-8.436;2023-08-01T14:52:14;1.40;;;1.30;;
61317;SDS011;47201;40.428;-8.436;2023-08-01T14:54:14;1.95;;;1.25;;